sensor_id;sensor_type;location;lat;lon;timestamp;pressure;altitude;pressure_sealevel;temperature;humidity
39793;BME280;26080;42.264;24.536;2022-12-18T00:00:31;99868.06;;;7.17;100.00
39793;BME280;26080;42.264;24.536;2022-12-18T00:02:56;99887.13;;;7.19;100.00
39793;BME280;26080;42.264;24.536;2022-12-18T00:05:22;99893.34;;;7.12;100.00
39793;BME280;26080;42.264;24.536;2022-12-18T00:07:47;99889.44;;;7.31;100.00
39793;BME280;26080;42.264;24.536;2022-12-18T00:10:13;99895.16;;;7.46;100.00
39793;BME280;26080;42.264;24.536;2022-12-18T00:12:38;99900.25;;;7.50;100.00
39793;BME280;26080;42.264;24.536;2022-12-18T00:15:04;99896.47;;;7.62;100.00
39793;BME280;26080;42.264;24.536;2022-12-18T00:17:30;99876.22;;;7.37;100.00
39793;BME280;26080;42.264;24.536;2022-12-18T00:19:55;99911.78;;;7.41;100.00
39793;BME280;26080;42.264;24.536;2022-12-18T00:22:20;99913.72;;;7.32;100.00
39793;BME280;26080;42.264;24.536;2022-12-18T00:24:46;99915.28;;;7.39;100.00
39793;BME280;26080;42.264;24.536;2022-12-18T00:27:11;99925.53;;;7.47;100.00
39793;BME280;26080;42.264;24.536;2022-12-18T00:29:37;99914.88;;;7.56;100.00
39793;BME280;26080;42.264;24.536;2022-12-18T00:32:02;99929.63;;;7.57;100.00
39793;BME280;26080;42.264;24.536;2022-12-18T00:34:27;99941.84;;;7.55;100.00
39793;BME280;26080;42.264;24.536;2022-12-18T00:36:53;99951.13;;;7.65;100.00
39793;BME280;26080;42.264;24.536;2022-12-18T00:39:18;99940.81;;;7.60;100.00
39793;BME280;26080;42.264;24.536;2022-12-18T00:41:44;99934.84;;;7.57;100.00
39793;BME280;26080;42.264;24.536;2022-12-18T00:44:28;99961.25;;;7.77;100.00
39793;BME280;26080;42.264;24.536;2022-12-18T00:46:53;99949.03;;;7.79;100.00
39793;BME280;26080;42.264;24.536;2022-12-18T00:49:19;99946.28;;;7.85;100.00
39793;BME280;26080;42.264;24.536;2022-12-18T00:51:45;99947.81;;;7.92;100.00
39793;BME280;26080;42.264;24.536;2022-12-18T00:54:10;99928.03;;;7.85;100.00
39793;BME280;26080;42.264;24.536;2022-12-18T00:56:37;99959.91;;;7.96;100.00
39793;BME280;26080;42.264;24.536;2022-12-18T00:59:03;99950.19;;;8.01;100.00
39793;BME280;26080;42.264;24.536;2022-12-18T01:01:29;99962.16;;;8.10;100.00
39793;BME280;26080;42.264;24.536;2022-12-18T01:03:55;99951.75;;;8.07;100.00
39793;BME280;26080;42.264;24.536;2022-12-18T01:06:20;99958.00;;;8.01;100.00
39793;BME280;26080;42.264;24.536;2022-12-18T01:08:45;99944.16;;;7.99;100.00
39793;BME280;26080;42.264;24.536;2022-12-18T01:11:13;99947.59;;;8.01;100.00
39793;BME280;26080;42.264;24.536;2022-12-18T01:13:40;99939.44;;;8.14;100.00
39793;BME280;26080;42.264;24.536;2022-12-18T01:16:06;99955.47;;;8.31;100.00
39793;BME280;26080;42.264;24.536;2022-12-18T01:18:31;99954.50;;;8.35;100.00
39793;BME280;26080;42.264;24.536;2022-12-18T01:20:57;99953.47;;;8.42;100.00
39793;BME280;26080;42.264;24.536;2022-12-18T01:23:22;99956.63;;;8.53;100.00
39793;BME280;26080;42.264;24.536;2022-12-18T01:25:48;99942.88;;;8.47;100.00
39793;BME280;26080;42.264;24.536;2022-12-18T01:28:13;99963.47;;;8.57;100.00
39793;BME280;26080;42.264;24.536;2022-12-18T01:30:39;99963.38;;;8.60;100.00
39793;BME280;26080;42.264;24.536;2022-12-18T01:33:05;99963.22;;;8.67;100.00
39793;BME280;26080;42.264;24.536;2022-12-18T01:35:31;99970.22;;;8.65;100.00
39793;BME280;26080;42.264;24.536;2022-12-18T01:37:56;99960.28;;;8.46;100.00
39793;BME280;26080;42.264;24.536;2022-12-18T01:40:22;99973.06;;;8.57;100.00
39793;BME280;26080;42.264;24.536;2022-12-18T01:42:52;99975.47;;;8.63;100.00
39793;BME280;26080;42.264;24.536;2022-12-18T01:50:18;99981.50;;;8.67;100.00
39793;BME280;26080;42.264;24.536;2022-12-18T01:52:48;99974.75;;;8.58;100.00
39793;BME280;26080;42.264;24.536;2022-12-18T01:55:16;99977.97;;;8.68;100.00
39793;BME280;26080;42.264;24.536;2022-12-18T01:57:43;99976.22;;;8.68;100.00
39793;BME280;26080;42.264;24.536;2022-12-18T02:00:12;99973.66;;;8.67;100.00
39793;BME280;26080;42.264;24.536;2022-12-18T02:02:40;99984.25;;;8.60;100.00
39793;BME280;26080;42.264;24.536;2022-12-18T02:05:06;99991.38;;;8.55;100.00
39793;BME280;26080;42.264;24.536;2022-12-18T02:07:48;99989.66;;;8.54;100.00
39793;BME280;26080;42.264;24.536;2022-12-18T02:10:26;99985.19;;;8.58;100.00
39793;BME280;26080;42.264;24.536;2022-12-18T02:18:36;99971.47;;;8.51;100.00
39793;BME280;26080;42.264;24.536;2022-12-18T02:21:15;99975.81;;;8.52;100.00
39793;BME280;26080;42.264;24.536;2022-12-18T02:24:11;99982.72;;;8.53;100.00
39793;BME280;26080;42.264;24.536;2022-12-18T02:26:53;99980.97;;;8.54;100.00
39793;BME280;26080;42.264;24.536;2022-12-18T02:29:35;99988.91;;;8.51;100.00
39793;BME280;26080;42.264;24.536;2022-12-18T02:32:04;99950.34;;;8.28;100.00
39793;BME280;26080;42.264;24.536;2022-12-18T02:34:32;99984.53;;;8.51;100.00
39793;BME280;26080;42.264;24.536;2022-12-18T02:37:03;99994.06;;;8.52;100.00
39793;BME280;26080;42.264;24.536;2022-12-18T02:39:31;99986.75;;;8.65;100.00
39793;BME280;26080;42.264;24.536;2022-12-18T02:41:58;100008.56;;;8.63;100.00
39793;BME280;26080;42.264;24.536;2022-12-18T02:44:24;100001.63;;;8.61;100.00
39793;BME280;26080;42.264;24.536;2022-12-18T02:46:51;100000.81;;;8.59;100.00
39793;BME280;26080;42.264;24.536;2022-12-18T02:58:22;99997.03;;;8.40;100.00
39793;BME280;26080;42.264;24.536;2022-12-18T03:01:00;99987.69;;;8.30;100.00
39793;BME280;26080;42.264;24.536;2022-12-18T03:03:31;99970.81;;;8.11;100.00
39793;BME280;26080;42.264;24.536;2022-12-18T03:06:06;99999.41;;;8.15;100.00
39793;BME280;26080;42.264;24.536;2022-12-18T03:08:39;99995.25;;;8.07;100.00
39793;BME280;26080;42.264;24.536;2022-12-18T03:11:09;99999.75;;;8.01;100.00
39793;BME280;26080;42.264;24.536;2022-12-18T03:13:38;100000.66;;;8.00;100.00
39793;BME280;26080;42.264;24.536;2022-12-18T03:16:06;99996.34;;;7.99;100.00
39793;BME280;26080;42.264;24.536;2022-12-18T03:18:35;100005.91;;;7.99;100.00
39793;BME280;26080;42.264;24.536;2022-12-18T03:21:05;99999.06;;;7.95;100.00
39793;BME280;26080;42.264;24.536;2022-12-18T03:23:35;100011.22;;;7.94;100.00
39793;BME280;26080;42.264;24.536;2022-12-18T03:26:07;100013.84;;;7.94;100.00
39793;BME280;26080;42.264;24.536;2022-12-18T03:28:38;100012.03;;;7.98;100.00
39793;BME280;26080;42.264;24.536;2022-12-18T03:31:07;100013.69;;;8.00;100.00
39793;BME280;26080;42.264;24.536;2022-12-18T03:33:43;100018.75;;;8.07;100.00
39793;BME280;26080;42.264;24.536;2022-12-18T03:36:11;100019.59;;;8.09;100.00
39793;BME280;26080;42.264;24.536;2022-12-18T03:38:36;100023.91;;;8.10;100.00
39793;BME280;26080;42.264;24.536;2022-12-18T03:41:24;100024.63;;;8.15;100.00
39793;BME280;26080;42.264;24.536;2022-12-18T03:44:13;100037.69;;;8.15;100.00
39793;BME280;26080;42.264;24.536;2022-12-18T03:52:36;100053.41;;;8.12;100.00
39793;BME280;26080;42.264;24.536;2022-12-18T03:55:03;100053.41;;;8.12;100.00
39793;BME280;26080;42.264;24.536;2022-12-18T03:57:31;100053.41;;;8.12;100.00
39793;BME280;26080;42.264;24.536;2022-12-18T04:00:03;100055.22;;;8.08;100.00
39793;BME280;26080;42.264;24.536;2022-12-18T04:02:33;100063.00;;;8.11;100.00
39793;BME280;26080;42.264;24.536;2022-12-18T04:05:02;100038.19;;;7.93;100.00
39793;BME280;26080;42.264;24.536;2022-12-18T04:07:30;100075.06;;;8.15;100.00
39793;BME280;26080;42.264;24.536;2022-12-18T04:09:57;100059.63;;;8.06;100.00
39793;BME280;26080;42.264;24.536;2022-12-18T04:12:25;100080.16;;;8.20;100.00
39793;BME280;26080;42.264;24.536;2022-12-18T04:14:54;100078.41;;;8.20;100.00
39793;BME280;26080;42.264;24.536;2022-12-18T04:17:19;100094.84;;;8.24;100.00
39793;BME280;26080;42.264;24.536;2022-12-18T04:19:45;100077.78;;;8.11;100.00
39793;BME280;26080;42.264;24.536;2022-12-18T04:22:11;100108.81;;;8.23;100.00
39793;BME280;26080;42.264;24.536;2022-12-18T04:24:37;100104.41;;;8.25;100.00
39793;BME280;26080;42.264;24.536;2022-12-18T04:27:02;100109.66;;;8.22;100.00
39793;BME280;26080;42.264;24.536;2022-12-18T04:29:28;100112.38;;;8.19;100.00
39793;BME280;26080;42.264;24.536;2022-12-18T04:31:54;100094.44;;;8.05;100.00
39793;BME280;26080;42.264;24.536;2022-12-18T04:34:19;100116.81;;;8.15;100.00
39793;BME280;26080;42.264;24.536;2022-12-18T04:36:45;100103.13;;;8.06;100.00
39793;BME280;26080;42.264;24.536;2022-12-18T04:39:10;100114.25;;;8.14;100.00
39793;BME280;26080;42.264;24.536;2022-12-18T04:41:36;100116.81;;;8.15;100.00
39793;BME280;26080;42.264;24.536;2022-12-18T04:44:01;100120.16;;;8.20;100.00
39793;BME280;26080;42.264;24.536;2022-12-18T04:46:30;100119.38;;;8.17;100.00
39793;BME280;26080;42.264;24.536;2022-12-18T04:48:56;100121.34;;;8.09;100.00
39793;BME280;26080;42.264;24.536;2022-12-18T04:51:24;100128.38;;;8.03;100.00
39793;BME280;26080;42.264;24.536;2022-12-18T04:53:49;100133.69;;;8.00;100.00
39793;BME280;26080;42.264;24.536;2022-12-18T04:56:16;100119.09;;;7.92;100.00
39793;BME280;26080;42.264;24.536;2022-12-18T04:58:43;100131.19;;;7.94;100.00
39793;BME280;26080;42.264;24.536;2022-12-18T05:01:10;100150.94;;;8.06;100.00
39793;BME280;26080;42.264;24.536;2022-12-18T05:03:36;100142.25;;;8.06;100.00
39793;BME280;26080;42.264;24.536;2022-12-18T05:06:03;100145.78;;;8.03;100.00
39793;BME280;26080;42.264;24.536;2022-12-18T05:08:29;100141.63;;;7.94;100.00
39793;BME280;26080;42.264;24.536;2022-12-18T05:11:04;100129.03;;;7.76;100.00
39793;BME280;26080;42.264;24.536;2022-12-18T05:13:30;100158.34;;;7.87;100.00
39793;BME280;26080;42.264;24.536;2022-12-18T05:15:56;100161.84;;;7.86;100.00
39793;BME280;26080;42.264;24.536;2022-12-18T05:18:23;100136.19;;;7.68;100.00
39793;BME280;26080;42.264;24.536;2022-12-18T05:20:49;100136.22;;;7.65;100.00
39793;BME280;26080;42.264;24.536;2022-12-18T05:23:15;100171.38;;;7.87;100.00
39793;BME280;26080;42.264;24.536;2022-12-18T05:25:40;100185.16;;;7.92;100.00
39793;BME280;26080;42.264;24.536;2022-12-18T05:28:06;100186.88;;;7.93;100.00
39793;BME280;26080;42.264;24.536;2022-12-18T05:30:31;100198.16;;;7.95;100.00
39793;BME280;26080;42.264;24.536;2022-12-18T05:32:57;100203.38;;;7.95;100.00
39793;BME280;26080;42.264;24.536;2022-12-18T05:35:22;100202.47;;;7.96;100.00
39793;BME280;26080;42.264;24.536;2022-12-18T05:37:47;100206.75;;;7.99;100.00
39793;BME280;26080;42.264;24.536;2022-12-18T05:40:13;100196.38;;;7.97;100.00
39793;BME280;26080;42.264;24.536;2022-12-18T05:42:39;100201.50;;;8.00;100.00
39793;BME280;26080;42.264;24.536;2022-12-18T05:45:05;100214.38;;;8.08;100.00
39793;BME280;26080;42.264;24.536;2022-12-18T05:47:31;100217.00;;;8.07;100.00
39793;BME280;26080;42.264;24.536;2022-12-18T05:49:56;100222.41;;;7.99;100.00
39793;BME280;26080;42.264;24.536;2022-12-18T05:52:22;100214.78;;;7.90;100.00
39793;BME280;26080;42.264;24.536;2022-12-18T05:54:48;100216.66;;;7.85;100.00
39793;BME280;26080;42.264;24.536;2022-12-18T05:57:13;100218.25;;;7.90;100.00
39793;BME280;26080;42.264;24.536;2022-12-18T05:59:39;100224.16;;;7.98;100.00
39793;BME280;26080;42.264;24.536;2022-12-18T06:02:04;100211.34;;;7.88;100.00
39793;BME280;26080;42.264;24.536;2022-12-18T06:04:30;100233.00;;;7.91;100.00
39793;BME280;26080;42.264;24.536;2022-12-18T06:06:55;100236.66;;;7.84;100.00
39793;BME280;26080;42.264;24.536;2022-12-18T06:09:20;100246.22;;;7.84;100.00
39793;BME280;26080;42.264;24.536;2022-12-18T06:11:46;100247.88;;;7.88;100.00
39793;BME280;26080;42.264;24.536;2022-12-18T06:14:11;100243.59;;;7.85;100.00
39793;BME280;26080;42.264;24.536;2022-12-18T06:16:37;100248.72;;;7.88;100.00
39793;BME280;26080;42.264;24.536;2022-12-18T06:19:04;100240.47;;;7.68;100.00
39793;BME280;26080;42.264;24.536;2022-12-18T06:21:31;100246.63;;;7.64;100.00
39793;BME280;26080;42.264;24.536;2022-12-18T06:23:56;100267.22;;;7.76;100.00
39793;BME280;26080;42.264;24.536;2022-12-18T06:26:23;100277.72;;;7.73;100.00
39793;BME280;26080;42.264;24.536;2022-12-18T06:28:49;100271.78;;;7.65;100.00
39793;BME280;26080;42.264;24.536;2022-12-18T06:31:14;100271.88;;;7.62;100.00
39793;BME280;26080;42.264;24.536;2022-12-18T06:33:39;100274.53;;;7.59;100.00
39793;BME280;26080;42.264;24.536;2022-12-18T06:36:06;100278.88;;;7.60;100.00
39793;BME280;26080;42.264;24.536;2022-12-18T06:38:36;100292.75;;;7.60;100.00
39793;BME280;26080;42.264;24.536;2022-12-18T06:41:14;100296.16;;;7.64;100.00
39793;BME280;26080;42.264;24.536;2022-12-18T06:43:43;100295.22;;;7.66;100.00
39793;BME280;26080;42.264;24.536;2022-12-18T06:46:18;100305.72;;;7.63;100.00
39793;BME280;26080;42.264;24.536;2022-12-18T06:48:47;100311.81;;;7.64;100.00
39793;BME280;26080;42.264;24.536;2022-12-18T06:51:22;100314.38;;;7.65;100.00
39793;BME280;26080;42.264;24.536;2022-12-18T06:53:49;100310.09;;;7.63;100.00
39793;BME280;26080;42.264;24.536;2022-12-18T06:56:14;100319.69;;;7.61;100.00
39793;BME280;26080;42.264;24.536;2022-12-18T06:58:40;100314.44;;;7.62;100.00
39793;BME280;26080;42.264;24.536;2022-12-18T07:01:09;100317.00;;;7.64;100.00
39793;BME280;26080;42.264;24.536;2022-12-18T07:03:36;100323.03;;;7.67;100.00
39793;BME280;26080;42.264;24.536;2022-12-18T07:06:04;100326.53;;;7.68;100.00
39793;BME280;26080;42.264;24.536;2022-12-18T07:08:30;100332.56;;;7.70;100.00
39793;BME280;26080;42.264;24.536;2022-12-18T07:10:56;100325.53;;;7.73;100.00
39793;BME280;26080;42.264;24.536;2022-12-18T07:13:22;100333.38;;;7.72;100.00
39793;BME280;26080;42.264;24.536;2022-12-18T07:15:48;100336.00;;;7.72;100.00
39793;BME280;26080;42.264;24.536;2022-12-18T07:18:13;100339.56;;;7.68;100.00
39793;BME280;26080;42.264;24.536;2022-12-18T07:20:39;100334.25;;;7.72;100.00
39793;BME280;26080;42.264;24.536;2022-12-18T07:23:04;100310.16;;;7.60;100.00
39793;BME280;26080;42.264;24.536;2022-12-18T07:25:34;100342.66;;;7.87;100.00
39793;BME280;26080;42.264;24.536;2022-12-18T07:27:59;100341.72;;;7.89;100.00
39793;BME280;26080;42.264;24.536;2022-12-18T07:30:25;100351.97;;;8.00;100.00
39793;BME280;26080;42.264;24.536;2022-12-18T07:32:50;100347.59;;;8.00;100.00
39793;BME280;26080;42.264;24.536;2022-12-18T07:35:16;100358.75;;;8.07;100.00
39793;BME280;26080;42.264;24.536;2022-12-18T07:37:41;100356.13;;;8.09;100.00
39793;BME280;26080;42.264;24.536;2022-12-18T07:40:08;100337.22;;;7.97;100.00
39793;BME280;26080;42.264;24.536;2022-12-18T07:42:37;100359.56;;;8.11;100.00
39793;BME280;26080;42.264;24.536;2022-12-18T07:45:03;100357.75;;;8.14;100.00
39793;BME280;26080;42.264;24.536;2022-12-18T07:47:34;100361.22;;;8.15;100.00
39793;BME280;26080;42.264;24.536;2022-12-18T07:50:04;100363.69;;;8.22;100.00
39793;BME280;26080;42.264;24.536;2022-12-18T07:52:30;100373.13;;;8.28;100.00
39793;BME280;26080;42.264;24.536;2022-12-18T07:54:55;100355.94;;;8.18;100.00
39793;BME280;26080;42.264;24.536;2022-12-18T07:57:21;100380.84;;;8.32;100.00
39793;BME280;26080;42.264;24.536;2022-12-18T07:59:46;100385.16;;;8.35;100.00
39793;BME280;26080;42.264;24.536;2022-12-18T08:02:12;100383.41;;;8.37;100.00
39793;BME280;26080;42.264;24.536;2022-12-18T08:04:38;100368.00;;;8.23;100.00
39793;BME280;26080;42.264;24.536;2022-12-18T08:07:03;100390.34;;;8.38;100.00
39793;BME280;26080;42.264;24.536;2022-12-18T08:09:28;100397.34;;;8.36;100.00
39793;BME280;26080;42.264;24.536;2022-12-18T08:11:54;100398.22;;;8.33;100.00
39793;BME280;26080;42.264;24.536;2022-12-18T08:14:19;100404.38;;;8.31;100.00
39793;BME280;26080;42.264;24.536;2022-12-18T08:16:45;100388.03;;;8.21;100.00
39793;BME280;26080;42.264;24.536;2022-12-18T08:19:10;100405.25;;;8.30;100.00
39793;BME280;26080;42.264;24.536;2022-12-18T08:21:37;100415.72;;;8.30;100.00
39793;BME280;26080;42.264;24.536;2022-12-18T08:24:06;100408.81;;;8.27;100.00
39793;BME280;26080;42.264;24.536;2022-12-18T08:26:32;100409.66;;;8.28;100.00
39793;BME280;26080;42.264;24.536;2022-12-18T08:28:59;100410.53;;;8.28;100.00
39793;BME280;26080;42.264;24.536;2022-12-18T08:31:26;100411.38;;;8.29;100.00
39793;BME280;26080;42.264;24.536;2022-12-18T08:33:52;100414.88;;;8.28;100.00
39793;BME280;26080;42.264;24.536;2022-12-18T08:36:19;100414.75;;;8.36;100.00
39793;BME280;26080;42.264;24.536;2022-12-18T08:38:45;100410.31;;;8.41;100.00
39793;BME280;26080;42.264;24.536;2022-12-18T08:41:13;100416.34;;;8.43;100.00
39793;BME280;26080;42.264;24.536;2022-12-18T08:43:40;100416.25;;;8.47;100.00
39793;BME280;26080;42.264;24.536;2022-12-18T08:46:25;100410.13;;;8.48;100.00
39793;BME280;26080;42.264;24.536;2022-12-18T08:48:52;100415.28;;;8.53;100.00
39793;BME280;26080;42.264;24.536;2022-12-18T08:51:18;100416.72;;;8.66;100.00
39793;BME280;26080;42.264;24.536;2022-12-18T08:53:44;100412.25;;;8.71;100.00
39793;BME280;26080;42.264;24.536;2022-12-18T08:56:10;100413.03;;;8.75;100.00
39793;BME280;26080;42.264;24.536;2022-12-18T08:58:36;100395.84;;;8.66;100.00
39793;BME280;26080;42.264;24.536;2022-12-18T09:01:05;100419.97;;;8.76;100.00
39793;BME280;26080;42.264;24.536;2022-12-18T09:03:31;100411.31;;;8.74;100.00
39793;BME280;26080;42.264;24.536;2022-12-18T09:05:58;100416.59;;;8.72;100.00
39793;BME280;26080;42.264;24.536;2022-12-18T09:08:23;100417.44;;;8.73;100.00
39793;BME280;26080;42.264;24.536;2022-12-18T09:10:51;100391.66;;;8.57;100.00
39793;BME280;26080;42.264;24.536;2022-12-18T09:13:17;100403.63;;;8.68;100.00
39793;BME280;26080;42.264;24.536;2022-12-18T09:15:44;100420.84;;;8.78;100.00
39793;BME280;26080;42.264;24.536;2022-12-18T09:18:11;100413.16;;;8.70;100.00
39793;BME280;26080;42.264;24.536;2022-12-18T09:20:37;100428.75;;;8.73;100.00
39793;BME280;26080;42.264;24.536;2022-12-18T09:23:04;100423.28;;;8.84;100.00
39793;BME280;26080;42.264;24.536;2022-12-18T09:25:30;100400.84;;;8.75;100.00
39793;BME280;26080;42.264;24.536;2022-12-18T09:28:12;100418.69;;;8.95;100.00
39793;BME280;26080;42.264;24.536;2022-12-18T09:30:39;100412.44;;;9.01;100.00
39793;BME280;26080;42.264;24.536;2022-12-18T09:33:05;100413.19;;;9.07;100.00
39793;BME280;26080;42.264;24.536;2022-12-18T09:35:30;100418.25;;;9.13;100.00
39793;BME280;26080;42.264;24.536;2022-12-18T09:37:56;100420.78;;;9.16;100.00
39793;BME280;26080;42.264;24.536;2022-12-18T09:40:25;100426.78;;;9.22;100.00
39793;BME280;26080;42.264;24.536;2022-12-18T09:43:03;100426.69;;;9.25;100.00
39793;BME280;26080;42.264;24.536;2022-12-18T09:45:40;100422.22;;;9.30;100.00
39793;BME280;26080;42.264;24.536;2022-12-18T09:48:25;100423.16;;;9.27;100.00
39793;BME280;26080;42.264;24.536;2022-12-18T09:50:54;100418.84;;;9.25;100.00
39793;BME280;26080;42.264;24.536;2022-12-18T09:53:24;100420.66;;;9.23;100.00
39793;BME280;26080;42.264;24.536;2022-12-18T09:55:52;100425.44;;;9.05;100.00
39793;BME280;26080;42.264;24.536;2022-12-18T10:00:57;100428.31;;;8.93;100.00
39793;BME280;26080;42.264;24.536;2022-12-18T10:03:23;100427.44;;;8.94;100.00
39793;BME280;26080;42.264;24.536;2022-12-18T10:06:07;100418.00;;;8.87;100.00
39793;BME280;26080;42.264;24.536;2022-12-18T10:09:42;100427.50;;;8.91;100.00
39793;BME280;26080;42.264;24.536;2022-12-18T10:11:52;100430.16;;;8.88;100.00
39793;BME280;26080;42.264;24.536;2022-12-18T10:20:15;100430.34;;;8.80;100.00
39793;BME280;26080;42.264;24.536;2022-12-18T10:26:02;100402.94;;;8.59;100.00
39793;BME280;26080;42.264;24.536;2022-12-18T10:28:30;100436.50;;;8.78;100.00
39793;BME280;26080;42.264;24.536;2022-12-18T10:30:55;100428.00;;;8.68;100.00
39793;BME280;26080;42.264;24.536;2022-12-18T10:33:23;100439.94;;;8.80;100.00
39793;BME280;26080;42.264;24.536;2022-12-18T10:35:52;100429.69;;;8.71;100.00
39793;BME280;26080;42.264;24.536;2022-12-18T10:41:02;100447.81;;;8.77;100.00
39793;BME280;26080;42.264;24.536;2022-12-18T10:43:38;100440.88;;;8.76;100.00
39793;BME280;26080;42.264;24.536;2022-12-18T10:51:05;100455.66;;;8.77;100.00
39793;BME280;26080;42.264;24.536;2022-12-18T10:53:33;100462.47;;;8.84;100.00
39793;BME280;26080;42.264;24.536;2022-12-18T10:56:03;100458.84;;;8.91;100.00
39793;BME280;26080;42.264;24.536;2022-12-18T10:58:32;100457.09;;;8.92;100.00
39793;BME280;26080;42.264;24.536;2022-12-18T11:03:44;100462.28;;;8.93;100.00
39793;BME280;26080;42.264;24.536;2022-12-18T11:06:14;100461.47;;;8.89;100.00
39793;BME280;26080;42.264;24.536;2022-12-18T11:08:57;100432.41;;;8.66;100.00
39793;BME280;26080;42.264;24.536;2022-12-18T11:11:24;100460.09;;;8.73;100.00
39793;BME280;26080;42.264;24.536;2022-12-18T11:14:00;100447.28;;;8.61;100.00
39793;BME280;26080;42.264;24.536;2022-12-18T11:16:27;100449.00;;;8.64;100.00
39793;BME280;26080;42.264;24.536;2022-12-18T11:18:53;100451.56;;;8.65;100.00
39793;BME280;26080;42.264;24.536;2022-12-18T11:21:19;100450.75;;;8.61;100.00
39793;BME280;26080;42.264;24.536;2022-12-18T11:23:52;100455.97;;;8.61;100.00
39793;BME280;26080;42.264;24.536;2022-12-18T11:26:18;100454.34;;;8.57;100.00
39793;BME280;26080;42.264;24.536;2022-12-18T11:28:46;100463.09;;;8.55;100.00
39793;BME280;26080;42.264;24.536;2022-12-18T11:31:28;100454.44;;;8.53;100.00
39793;BME280;26080;42.264;24.536;2022-12-18T11:36:25;100441.75;;;8.33;100.00
39793;BME280;26080;42.264;24.536;2022-12-18T11:38:55;100457.16;;;8.47;100.00
39793;BME280;26080;42.264;24.536;2022-12-18T11:41:34;100459.72;;;8.50;100.00
39793;BME280;26080;42.264;24.536;2022-12-18T11:44:28;100441.66;;;8.39;100.00
39793;BME280;26080;42.264;24.536;2022-12-18T11:47:13;100458.88;;;8.48;100.00
39793;BME280;26080;42.264;24.536;2022-12-18T11:49:49;100447.78;;;8.38;100.00
39793;BME280;26080;42.264;24.536;2022-12-18T11:54:43;100468.41;;;8.50;100.00
39793;BME280;26080;42.264;24.536;2022-12-18T11:59:55;100474.50;;;8.51;100.00
39793;BME280;26080;42.264;24.536;2022-12-18T12:11:22;100476.47;;;8.40;100.00
39793;BME280;26080;42.264;24.536;2022-12-18T12:17:03;100472.09;;;8.40;100.00
39793;BME280;26080;42.264;24.536;2022-12-18T12:30:13;100489.03;;;8.63;100.00
39793;BME280;26080;42.264;24.536;2022-12-18T12:32:46;100484.88;;;8.54;100.00
39793;BME280;26080;42.264;24.536;2022-12-18T12:40:23;100489.31;;;8.50;100.00
39793;BME280;26080;42.264;24.536;2022-12-18T12:42:55;100494.47;;;8.53;100.00
39793;BME280;26080;42.264;24.536;2022-12-18T12:45:44;100501.50;;;8.50;100.00
39793;BME280;26080;42.264;24.536;2022-12-18T12:53:51;100516.28;;;8.49;100.00
39793;BME280;26080;42.264;24.536;2022-12-18T12:56:20;100522.34;;;8.51;100.00
39793;BME280;26080;42.264;24.536;2022-12-18T12:59:13;100523.25;;;8.49;100.00
39793;BME280;26080;42.264;24.536;2022-12-18T13:15:47;100530.66;;;9.12;100.00
39793;BME280;26080;42.264;24.536;2022-12-18T13:20:50;100528.16;;;9.07;100.00
39793;BME280;26080;42.264;24.536;2022-12-18T13:31:01;100532.88;;;8.90;100.00
39793;BME280;26080;42.264;24.536;2022-12-18T13:36:16;100539.72;;;8.96;100.00
39793;BME280;26080;42.264;24.536;2022-12-18T13:38:43;100554.66;;;8.89;100.00
39793;BME280;26080;42.264;24.536;2022-12-18T13:43:49;100547.34;;;8.65;100.00
39793;BME280;26080;42.264;24.536;2022-12-18T13:46:44;100559.00;;;8.45;100.00
39793;BME280;26080;42.264;24.536;2022-12-18T13:51:44;100555.78;;;8.29;100.00
39793;BME280;26080;42.264;24.536;2022-12-18T13:56:58;100539.50;;;8.15;100.00
39793;BME280;26080;42.264;24.536;2022-12-18T13:59:25;100552.41;;;8.24;100.00
39793;BME280;26080;42.264;24.536;2022-12-18T14:01:56;100562.81;;;8.26;100.00
39793;BME280;26080;42.264;24.536;2022-12-18T14:04:31;100567.91;;;8.32;100.00
39793;BME280;26080;42.264;24.536;2022-12-18T14:07:05;100571.09;;;8.49;100.00
39793;BME280;26080;42.264;24.536;2022-12-18T14:09:35;100573.66;;;8.54;100.00
39793;BME280;26080;42.264;24.536;2022-12-18T14:12:02;100567.09;;;8.76;100.00
39793;BME280;26080;42.264;24.536;2022-12-18T14:14:48;100570.47;;;8.83;100.00
39793;BME280;26080;42.264;24.536;2022-12-18T14:17:15;100573.59;;;9.00;100.00
39793;BME280;26080;42.264;24.536;2022-12-18T14:19:48;100553.75;;;8.92;100.00
39793;BME280;26080;42.264;24.536;2022-12-18T14:22:18;100581.38;;;9.05;100.00
39793;BME280;26080;42.264;24.536;2022-12-18T14:24:45;100587.31;;;9.11;100.00
39793;BME280;26080;42.264;24.536;2022-12-18T14:27:21;100588.88;;;9.20;100.00
39793;BME280;26080;42.264;24.536;2022-12-18T14:29:47;100548.38;;;8.99;100.00
39793;BME280;26080;42.264;24.536;2022-12-18T14:32:14;100593.09;;;9.26;100.00
39793;BME280;26080;42.264;24.536;2022-12-18T14:34:49;100589.69;;;9.22;100.00
39793;BME280;26080;42.264;24.536;2022-12-18T14:37:17;100597.44;;;9.27;100.00
39793;BME280;26080;42.264;24.536;2022-12-18T14:39:59;100602.69;;;9.25;100.00
39793;BME280;26080;42.264;24.536;2022-12-18T14:42:26;100620.06;;;9.28;100.00
39793;BME280;26080;42.264;24.536;2022-12-18T14:45:45;100621.69;;;9.35;100.00
39793;BME280;26080;42.264;24.536;2022-12-18T14:50:35;100622.81;;;9.22;100.00
39793;BME280;26080;42.264;24.536;2022-12-18T14:53:00;100612.63;;;9.09;100.00
39793;BME280;26080;42.264;24.536;2022-12-18T14:55:26;100605.22;;;8.86;100.00
39793;BME280;26080;42.264;24.536;2022-12-18T14:57:54;100602.47;;;8.94;100.00